Terminal Aerodrome Forecast
Issued by NWS

Home | Current Version | Previous Version | Text Only | Print | Product List | Glossary On
Versions: 1 2 3 4 5 6 7 8 9 10 11 12 13 14 15 16 17 18 19 20 21 22 23 24 25 26 27 28 29
000
FTUS41 KBOX 221734
TAFACK
TAF
KACK 221734Z 2218/2318 04015KT P6SM VCSH OVC070
     FM222100 04014KT 6SM -RAPL OVC050
     FM222300 05013KT P6SM VCSH OVC050
     FM230100 05012KT P6SM VCSH OVC045
     FM230300 05012KT P6SM OVC015
     FM231000 06012KT P6SM BKN200=

USA.gov is the U.S. government's official web portal to all federal, state and local government web resources and services.